createdAt,value
2019-03-21T00:00:30.034Z,27.17
2019-03-21T00:02:56.687Z,22.70
2019-03-21T00:05:27.159Z,28.07
2019-03-21T00:07:53.914Z,25.47
2019-03-21T00:10:26.256Z,22.80
2019-03-21T00:12:52.971Z,25.87
2019-03-21T00:15:25.456Z,32.20
2019-03-21T00:17:56.567Z,31.67
2019-03-21T00:20:23.190Z,26.20
2019-03-21T00:22:49.793Z,23.73
2019-03-21T00:25:21.081Z,25.77
2019-03-21T00:27:47.897Z,20.37
2019-03-21T00:30:18.691Z,26.60
2019-03-21T00:32:45.848Z,21.40
2019-03-21T00:35:13.457Z,19.60
2019-03-21T00:37:40.466Z,18.27
2019-03-21T00:40:14.040Z,26.60
2019-03-21T00:42:40.899Z,26.60
2019-03-21T00:45:13.717Z,22.63
2019-03-21T00:47:40.825Z,19.93
2019-03-21T00:50:12.935Z,20.90
2019-03-21T00:52:39.676Z,19.77
2019-03-21T00:55:11.082Z,19.47
2019-03-21T00:58:15.216Z,17.63
2019-03-21T01:00:46.702Z,19.70
2019-03-21T01:03:13.716Z,19.20
2019-03-21T01:05:41.575Z,24.43
2019-03-21T01:08:08.442Z,17.43
2019-03-21T01:10:35.018Z,16.10
2019-03-21T01:13:01.891Z,21.00
2019-03-21T01:15:28.539Z,20.90
2019-03-21T01:17:55.106Z,14.10
2019-03-21T01:20:21.801Z,19.97
2019-03-21T01:22:49.576Z,18.80
2019-03-21T01:25:19.986Z,19.10
2019-03-21T01:27:47.805Z,16.63
2019-03-21T01:30:18.331Z,22.83
2019-03-21T01:32:44.943Z,19.60
2019-03-21T01:35:11.633Z,20.67
2019-03-21T01:37:38.188Z,19.17
2019-03-21T01:40:10.572Z,15.13
2019-03-21T01:42:37.260Z,16.90
2019-03-21T01:45:09.624Z,22.53
2019-03-21T01:47:36.260Z,22.63
2019-03-21T01:50:08.630Z,19.37
2019-03-21T01:52:38.052Z,20.60
2019-03-21T01:55:09.223Z,18.17
2019-03-21T01:57:36.711Z,18.83
2019-03-21T02:00:09.045Z,27.40
2019-03-21T02:02:35.669Z,18.43
2019-03-21T02:05:06.756Z,17.70
2019-03-21T02:07:33.392Z,23.57
2019-03-21T02:10:01.370Z,22.20
2019-03-21T02:12:28.154Z,19.63
2019-03-21T02:14:54.820Z,23.37
2019-03-21T02:17:21.391Z,18.73
2019-03-21T02:19:48.070Z,19.60
2019-03-21T02:22:14.738Z,17.43
2019-03-21T02:24:41.344Z,24.37
2019-03-21T02:27:07.994Z,23.87
2019-03-21T02:29:34.564Z,22.03
2019-03-21T02:32:01.090Z,23.43
2019-03-21T02:34:27.686Z,24.73
2019-03-21T02:36:54.247Z,17.57
2019-03-21T02:39:20.867Z,22.90
2019-03-21T02:41:47.506Z,20.00
2019-03-21T02:44:14.334Z,24.07
2019-03-21T02:46:40.939Z,20.17
2019-03-21T02:49:07.538Z,22.10
2019-03-21T02:51:34.130Z,21.90
2019-03-21T02:54:00.687Z,28.60
2019-03-21T02:57:23.491Z,20.53
2019-03-21T02:59:50.100Z,22.50
2019-03-21T03:02:16.731Z,21.77
2019-03-21T03:04:43.299Z,21.13
2019-03-21T03:07:09.984Z,21.87
2019-03-21T03:09:37.731Z,22.20
2019-03-21T03:12:04.407Z,21.30
2019-03-21T03:14:30.974Z,23.07
2019-03-21T03:16:57.552Z,29.50
2019-03-21T03:19:24.148Z,25.70
2019-03-21T03:21:50.689Z,23.17
2019-03-21T03:24:18.160Z,23.93
2019-03-21T03:26:44.770Z,23.20
2019-03-21T03:29:11.424Z,25.60
2019-03-21T03:31:38.002Z,24.50
2019-03-21T03:34:04.565Z,25.67
2019-03-21T03:36:31.167Z,24.37
2019-03-21T03:38:58.317Z,31.40
2019-03-21T03:41:25.148Z,22.57
2019-03-21T03:43:52.069Z,25.93
2019-03-21T03:46:18.951Z,29.30
2019-03-21T03:48:45.533Z,25.20
2019-03-21T03:52:08.497Z,28.40
2019-03-21T03:54:35.252Z,28.23
2019-03-21T03:57:01.998Z,28.37
2019-03-21T03:59:28.733Z,29.23
2019-03-21T04:01:55.739Z,28.03
2019-03-21T04:04:25.947Z,22.57
2019-03-21T04:06:52.904Z,29.40
2019-03-21T04:09:19.914Z,25.67
2019-03-21T04:11:46.651Z,23.07
2019-03-21T04:14:13.459Z,26.07
2019-03-21T04:16:40.092Z,29.13
2019-03-21T04:19:06.711Z,21.70
2019-03-21T04:21:33.302Z,28.33
2019-03-21T04:24:00.284Z,28.87
2019-03-21T04:26:32.546Z,24.97
2019-03-21T04:28:59.129Z,23.87
2019-03-21T04:31:25.806Z,21.17
2019-03-21T04:33:57.522Z,22.57
2019-03-21T04:36:24.172Z,25.57
2019-03-21T04:38:50.739Z,31.80
2019-03-21T04:41:17.450Z,31.93
2019-03-21T04:43:44.018Z,29.77
2019-03-21T04:46:10.564Z,26.37
2019-03-21T04:48:37.216Z,22.57
2019-03-21T04:51:03.889Z,26.43
2019-03-21T04:53:30.452Z,34.83
2019-03-21T04:55:57.139Z,42.17
2019-03-21T04:58:25.199Z,27.33
2019-03-21T05:00:56.712Z,27.03
2019-03-21T05:03:27.429Z,34.97
2019-03-21T05:05:54.294Z,26.67
2019-03-21T05:08:20.840Z,27.33
2019-03-21T05:10:47.464Z,31.70
2019-03-21T05:13:14.118Z,25.57
2019-03-21T05:15:45.733Z,33.37
2019-03-21T05:18:19.234Z,30.40
2019-03-21T05:20:46.072Z,26.90
2019-03-21T05:23:12.648Z,25.30
2019-03-21T05:25:39.235Z,24.90
2019-03-21T05:28:05.934Z,34.23
2019-03-21T05:30:36.342Z,36.67
2019-03-21T05:33:03.172Z,25.43
2019-03-21T05:35:29.786Z,30.13
2019-03-21T05:37:56.450Z,28.77
2019-03-21T05:40:23.430Z,32.53
2019-03-21T05:42:55.805Z,30.70
2019-03-21T05:45:23.257Z,35.27
2019-03-21T05:47:49.835Z,36.23
2019-03-21T05:50:16.725Z,29.03
2019-03-21T05:52:43.439Z,39.13
2019-03-21T05:55:11.404Z,31.43
2019-03-21T05:57:38.179Z,29.37
2019-03-21T06:00:10.489Z,27.83
2019-03-21T06:02:37.200Z,29.70
2019-03-21T06:05:05.426Z,32.43
2019-03-21T06:07:37.858Z,34.87
2019-03-21T06:10:10.164Z,23.20
2019-03-21T06:12:40.781Z,30.70
2019-03-21T06:15:28.973Z,33.47
2019-03-21T06:18:01.299Z,31.00
2019-03-21T06:20:33.693Z,29.93
2019-03-21T06:23:06.060Z,33.50
2019-03-21T06:25:36.530Z,27.43
2019-03-21T06:28:03.103Z,31.57
2019-03-21T06:30:29.711Z,40.53
2019-03-21T06:32:56.410Z,33.03
2019-03-21T06:35:23.240Z,35.17
2019-03-21T06:37:50.229Z,38.90
2019-03-21T06:40:17.140Z,31.90
2019-03-21T06:42:43.688Z,29.63
2019-03-21T06:45:10.611Z,32.53
2019-03-21T06:47:37.197Z,26.67
2019-03-21T06:50:05.829Z,30.20
2019-03-21T06:52:32.507Z,39.47
2019-03-21T06:54:59.906Z,34.77
2019-03-21T06:57:27.095Z,28.80
2019-03-21T06:59:53.678Z,34.47
2019-03-21T07:02:21.342Z,31.83
2019-03-21T07:04:47.961Z,36.23
2019-03-21T07:07:14.600Z,34.27
2019-03-21T07:09:41.179Z,34.83
2019-03-21T07:12:08.037Z,24.83
2019-03-21T07:14:34.699Z,24.93
2019-03-21T07:17:02.958Z,38.00
2019-03-21T07:19:30.637Z,30.97
2019-03-21T07:21:57.196Z,31.23
2019-03-21T07:24:23.835Z,32.60
2019-03-21T07:26:50.607Z,27.83
2019-03-21T07:29:17.359Z,26.20
2019-03-21T07:31:43.937Z,30.03
2019-03-21T07:34:10.548Z,27.83
2019-03-21T07:36:37.967Z,26.97
2019-03-21T07:39:06.447Z,27.63
2019-03-21T07:41:33.068Z,27.93
2019-03-21T07:43:59.729Z,33.67
2019-03-21T07:46:26.434Z,31.50
2019-03-21T07:48:53.163Z,30.83
2019-03-21T07:51:20.687Z,30.13
2019-03-21T07:53:47.259Z,32.70
2019-03-21T07:56:13.849Z,28.27
2019-03-21T07:58:40.413Z,27.17
2019-03-21T08:01:07.173Z,26.33
2019-03-21T08:03:34.362Z,23.70
2019-03-21T08:06:01.365Z,29.30
2019-03-21T08:08:27.986Z,28.70
2019-03-21T08:10:55.856Z,26.50
2019-03-21T08:13:22.406Z,20.77
2019-03-21T08:15:48.982Z,31.13
2019-03-21T08:18:16.704Z,33.30
2019-03-21T08:20:43.521Z,24.77
2019-03-21T08:23:11.950Z,25.33
2019-03-21T08:25:38.575Z,23.57
2019-03-21T08:28:05.297Z,22.70
2019-03-21T08:30:34.557Z,26.30
2019-03-21T08:33:03.444Z,23.83
2019-03-21T08:35:30.491Z,25.30
2019-03-21T08:37:57.157Z,30.07
2019-03-21T08:40:24.465Z,27.17
2019-03-21T08:42:51.161Z,25.53
2019-03-21T08:45:17.765Z,28.83
2019-03-21T08:47:44.584Z,27.77
2019-03-21T08:50:12.674Z,31.90
2019-03-21T08:52:39.790Z,20.93
2019-03-21T08:55:07.935Z,21.73
2019-03-21T08:57:34.524Z,25.70
2019-03-21T09:00:01.506Z,22.37
2019-03-21T09:02:28.157Z,20.90
2019-03-21T09:04:55.007Z,21.93
2019-03-21T09:07:21.565Z,19.73
2019-03-21T09:11:03.327Z,24.43
2019-03-21T09:13:30.110Z,17.23
2019-03-21T09:15:56.712Z,20.97
2019-03-21T09:18:23.281Z,18.20
2019-03-21T09:20:49.833Z,17.57
2019-03-21T09:23:16.417Z,29.00
2019-03-21T09:25:43.196Z,22.73
2019-03-21T09:28:09.863Z,16.53
2019-03-21T09:30:36.541Z,17.70
2019-03-21T09:33:03.454Z,24.40
2019-03-21T09:35:30.079Z,18.43
2019-03-21T09:37:56.768Z,16.10
2019-03-21T09:40:23.335Z,11.47
2019-03-21T09:42:50.154Z,18.77
2019-03-21T09:45:16.904Z,20.07
2019-03-21T09:47:43.524Z,15.50
2019-03-21T09:50:15.896Z,12.40
2019-03-21T09:52:42.471Z,12.67
2019-03-21T09:55:09.350Z,13.13
2019-03-21T09:57:35.937Z,12.47
2019-03-21T10:00:06.821Z,14.03
2019-03-21T10:02:33.598Z,14.67
2019-03-21T10:05:00.327Z,15.77
2019-03-21T10:07:27.170Z,16.23
2019-03-21T10:12:41.166Z,11.10
2019-03-21T10:15:08.263Z,19.17
2019-03-21T10:17:34.925Z,15.73
2019-03-21T10:20:04.999Z,16.10
2019-03-21T10:22:34.717Z,10.17
2019-03-21T10:25:01.393Z,12.57
2019-03-21T10:27:28.086Z,11.57
2019-03-21T10:29:54.654Z,11.53
2019-03-21T10:32:21.209Z,7.90
2019-03-21T10:34:47.869Z,13.27
2019-03-21T10:37:14.543Z,11.77
2019-03-21T10:39:44.307Z,14.97
2019-03-21T10:42:11.088Z,12.07
2019-03-21T10:44:37.746Z,12.97
2019-03-21T10:47:04.539Z,17.63
2019-03-21T10:49:31.093Z,16.07
2019-03-21T10:51:57.667Z,11.03
2019-03-21T10:54:24.234Z,11.83
2019-03-21T10:56:52.181Z,13.97
2019-03-21T10:59:18.827Z,13.43
2019-03-21T11:01:45.602Z,18.27
2019-03-21T11:04:12.136Z,19.37
2019-03-21T11:06:38.723Z,19.47
2019-03-21T11:09:06.526Z,16.27
2019-03-21T11:11:33.192Z,17.70
2019-03-21T11:13:59.746Z,21.93
2019-03-21T11:16:26.758Z,18.03
2019-03-21T11:18:53.617Z,15.90
2019-03-21T11:21:23.190Z,14.57
2019-03-21T11:23:49.792Z,15.40
2019-03-21T11:26:16.412Z,15.20
2019-03-21T11:28:43.038Z,15.17
2019-03-21T11:31:09.590Z,14.00
2019-03-21T11:33:36.167Z,17.20
2019-03-21T11:36:03.055Z,15.03
2019-03-21T11:38:29.672Z,16.67
2019-03-21T11:40:56.672Z,16.83
2019-03-21T11:43:23.772Z,17.30
2019-03-21T11:45:50.631Z,18.90
2019-03-21T11:48:17.662Z,13.40
2019-03-21T11:50:44.858Z,21.60
2019-03-21T11:53:11.908Z,15.57
2019-03-21T11:55:38.916Z,15.13
2019-03-21T11:58:05.892Z,9.60
2019-03-21T12:00:42.709Z,17.73
2019-03-21T12:03:04.258Z,12.97
2019-03-21T12:05:32.137Z,18.57
2019-03-21T12:07:59.261Z,14.20
2019-03-21T12:10:26.418Z,13.50
2019-03-21T12:12:53.609Z,9.80
2019-03-21T12:15:20.591Z,9.07
2019-03-21T12:17:47.459Z,11.70
2019-03-21T12:20:20.293Z,12.13
2019-03-21T12:22:47.548Z,11.13
2019-03-21T12:25:15.753Z,10.70
2019-03-21T12:27:45.714Z,11.93
2019-03-21T12:30:18.447Z,10.37
2019-03-21T12:32:45.563Z,9.30
2019-03-21T12:35:14.642Z,16.27
2019-03-21T12:37:41.904Z,9.20
2019-03-21T12:40:09.143Z,12.03
2019-03-21T12:42:36.164Z,9.67
2019-03-21T12:45:07.779Z,8.10
2019-03-21T12:47:35.684Z,12.13
2019-03-21T12:50:06.750Z,12.50
2019-03-21T12:52:41.407Z,13.87
2019-03-21T12:55:06.699Z,12.53
2019-03-21T12:57:35.224Z,10.83
2019-03-21T13:00:07.979Z,11.70
2019-03-21T13:02:34.969Z,9.73
2019-03-21T13:05:06.219Z,9.47
2019-03-21T13:07:33.500Z,10.53
2019-03-21T13:10:00.457Z,11.07
2019-03-21T13:12:27.772Z,15.53
2019-03-21T13:14:54.736Z,10.20
2019-03-21T13:17:21.764Z,16.03
2019-03-21T13:19:48.742Z,10.00
2019-03-21T13:22:15.717Z,11.80
2019-03-21T13:24:42.722Z,8.50
2019-03-21T13:27:09.698Z,8.70
2019-03-21T13:29:36.590Z,7.57
2019-03-21T13:32:03.645Z,8.70
2019-03-21T13:34:30.660Z,11.17
2019-03-21T13:36:57.574Z,13.10
2019-03-21T13:39:24.885Z,9.53
2019-03-21T13:41:51.955Z,10.23
2019-03-21T13:44:18.865Z,13.47
2019-03-21T13:46:45.896Z,9.87
2019-03-21T13:49:12.763Z,8.63
2019-03-21T13:51:39.845Z,12.53
2019-03-21T13:54:08.737Z,8.50
2019-03-21T13:56:38.269Z,9.03
2019-03-21T13:59:04.603Z,15.50
2019-03-21T14:01:31.465Z,9.30
2019-03-21T14:03:58.479Z,12.47
2019-03-21T14:07:21.615Z,9.23
2019-03-21T14:09:48.602Z,10.57
2019-03-21T14:12:15.655Z,7.80
2019-03-21T14:14:42.644Z,8.90
2019-03-21T14:17:21.370Z,9.13
2019-03-21T14:19:39.085Z,11.90
2019-03-21T14:22:06.178Z,15.67
2019-03-21T14:24:33.047Z,9.33
2019-03-21T14:27:00.054Z,10.80
2019-03-21T14:29:27.110Z,11.17
2019-03-21T14:31:54.231Z,9.40
2019-03-21T14:34:21.343Z,6.93
2019-03-21T14:36:48.257Z,8.00
2019-03-21T14:39:15.141Z,13.13
2019-03-21T14:41:42.038Z,9.70
2019-03-21T14:44:08.906Z,14.23
2019-03-21T14:46:35.834Z,12.03
2019-03-21T14:49:03.127Z,10.87
2019-03-21T14:51:30.188Z,9.47
2019-03-21T14:53:57.229Z,13.10
2019-03-21T14:56:24.332Z,8.33
2019-03-21T14:58:51.255Z,11.37
2019-03-21T15:01:18.457Z,15.33
2019-03-21T15:03:45.384Z,13.70
2019-03-21T15:06:15.262Z,16.87
2019-03-21T15:08:42.175Z,12.43
2019-03-21T15:11:17.057Z,8.37
2019-03-21T15:13:38.207Z,15.83
2019-03-21T15:16:05.355Z,9.93
2019-03-21T15:18:32.258Z,12.83
2019-03-21T15:20:59.132Z,21.57
2019-03-21T15:23:26.194Z,16.47
2019-03-21T15:25:54.166Z,13.83
2019-03-21T15:28:21.301Z,13.57
2019-03-21T15:30:48.560Z,11.33
2019-03-21T15:33:16.853Z,21.30
2019-03-21T15:35:43.890Z,29.60
2019-03-21T15:38:11.467Z,18.70
2019-03-21T15:40:38.526Z,21.03
2019-03-21T15:43:05.718Z,17.70
2019-03-21T15:45:32.908Z,19.27
2019-03-21T15:48:00.035Z,22.17
2019-03-21T15:50:31.148Z,11.10
2019-03-21T15:52:58.385Z,13.90
2019-03-21T15:55:25.920Z,10.63
2019-03-21T15:57:52.835Z,21.10
2019-03-21T16:00:25.837Z,11.77
2019-03-21T16:02:53.129Z,22.77
2019-03-21T16:05:20.516Z,17.90
2019-03-21T16:07:47.440Z,16.27
2019-03-21T16:10:14.410Z,14.20
2019-03-21T16:12:42.897Z,16.63
2019-03-21T16:15:10.355Z,18.53
2019-03-21T16:17:37.397Z,20.40
2019-03-21T16:20:06.509Z,17.53
2019-03-21T16:22:34.015Z,25.70
2019-03-21T16:25:03.182Z,17.83
2019-03-21T16:27:30.189Z,31.73
2019-03-21T16:29:57.151Z,25.10
2019-03-21T16:32:24.577Z,33.10
2019-03-21T16:34:53.397Z,24.70
2019-03-21T16:38:16.811Z,24.47
2019-03-21T16:40:44.272Z,18.67
2019-03-21T16:43:11.269Z,26.00
2019-03-21T16:45:38.283Z,19.00
2019-03-21T16:48:05.415Z,21.67
2019-03-21T16:50:34.562Z,22.63
2019-03-21T16:53:02.479Z,24.80
2019-03-21T16:55:29.974Z,46.03
2019-03-21T16:57:56.923Z,22.93
2019-03-21T17:00:24.509Z,23.27
2019-03-21T17:02:53.568Z,117.60
2019-03-21T17:05:22.596Z,24.47
2019-03-21T17:07:50.069Z,84.37
2019-03-21T17:10:17.328Z,27.90
2019-03-21T17:12:46.499Z,38.90
2019-03-21T17:15:14.101Z,29.37
2019-03-21T17:17:41.338Z,27.47
2019-03-21T17:20:11.508Z,24.10
2019-03-21T17:22:38.411Z,43.53
2019-03-21T17:25:07.597Z,36.87
2019-03-21T17:27:34.302Z,30.97
2019-03-21T17:30:01.195Z,26.63
2019-03-21T17:32:28.662Z,36.07
2019-03-21T17:34:55.919Z,43.60
2019-03-21T17:37:22.554Z,45.53
2019-03-21T17:39:49.357Z,58.90
2019-03-21T17:42:16.500Z,93.80
2019-03-21T17:44:43.199Z,62.70
2019-03-21T17:47:09.823Z,49.40
2019-03-21T17:49:36.509Z,42.23
2019-03-21T17:52:03.407Z,85.53
2019-03-21T17:54:41.087Z,36.13
2019-03-21T17:56:59.253Z,33.07
2019-03-21T17:59:26.161Z,36.87
2019-03-21T18:01:53.545Z,65.43
2019-03-21T18:04:20.417Z,34.47
2019-03-21T18:06:47.084Z,56.80
2019-03-21T18:09:13.649Z,26.27
2019-03-21T18:11:40.456Z,27.63
2019-03-21T18:14:07.087Z,28.97
2019-03-21T18:16:34.135Z,32.20
2019-03-21T18:19:00.989Z,32.77
2019-03-21T18:21:27.716Z,58.27
2019-03-21T18:23:54.542Z,32.03
2019-03-21T18:26:21.376Z,44.83
2019-03-21T18:28:48.153Z,57.57
2019-03-21T18:31:16.068Z,84.00
2019-03-21T18:33:42.790Z,33.50
2019-03-21T18:36:09.388Z,36.17
2019-03-21T18:38:36.062Z,34.63
2019-03-21T18:41:03.356Z,42.23
2019-03-21T18:43:29.957Z,37.47
2019-03-21T18:45:56.760Z,38.10
2019-03-21T18:48:23.338Z,37.13
2019-03-21T18:50:50.266Z,46.63
2019-03-21T18:53:16.932Z,40.47
2019-03-21T18:55:44.475Z,39.90
2019-03-21T18:58:14.023Z,47.53
2019-03-21T19:00:40.868Z,37.37
2019-03-21T19:03:07.498Z,39.73
2019-03-21T19:05:34.051Z,34.47
2019-03-21T19:08:00.858Z,36.50
2019-03-21T19:10:27.557Z,38.07
2019-03-21T19:12:54.460Z,36.10
2019-03-21T19:15:21.127Z,32.63
2019-03-21T19:17:47.797Z,31.30
2019-03-21T19:20:17.510Z,41.93
2019-03-21T19:22:44.533Z,278.87
2019-03-21T19:25:18.422Z,43.37
2019-03-21T19:27:40.855Z,32.60
2019-03-21T19:30:12.476Z,32.97
2019-03-21T19:32:39.049Z,32.87
2019-03-21T19:35:06.561Z,85.93
2019-03-21T19:37:33.789Z,40.37
2019-03-21T19:40:00.589Z,136.03
2019-03-21T19:42:27.217Z,42.93
2019-03-21T19:44:55.789Z,45.63
2019-03-21T19:47:29.886Z,39.07
2019-03-21T19:49:51.237Z,39.40
2019-03-21T19:52:17.844Z,35.57
2019-03-21T19:54:44.541Z,41.27
2019-03-21T19:57:11.133Z,37.57
2019-03-21T19:59:40.560Z,46.97
2019-03-21T20:02:06.436Z,46.57
2019-03-21T20:04:33.227Z,50.13
2019-03-21T20:06:59.903Z,46.07
2019-03-21T20:09:26.641Z,43.10
2019-03-21T20:11:53.412Z,41.37
2019-03-21T20:14:21.960Z,98.97
2019-03-21T20:16:48.786Z,58.37
2019-03-21T20:19:15.578Z,53.80
2019-03-21T20:21:47.736Z,63.00
2019-03-21T20:24:10.716Z,58.10
2019-03-21T20:26:37.350Z,136.60
2019-03-21T20:29:04.082Z,61.47
2019-03-21T20:31:30.839Z,55.77
2019-03-21T20:33:57.384Z,98.00
2019-03-21T20:36:26.996Z,73.20
2019-03-21T20:38:53.652Z,118.23
2019-03-21T20:41:20.243Z,121.27
2019-03-21T20:43:46.840Z,90.13
2019-03-21T20:46:13.562Z,42.03
2019-03-21T20:48:42.121Z,135.63
2019-03-21T20:51:08.838Z,102.70
2019-03-21T20:53:35.517Z,88.37
2019-03-21T20:56:02.299Z,91.33
2019-03-21T20:58:29.093Z,51.87
2019-03-21T21:00:55.852Z,57.33
2019-03-21T21:03:22.434Z,41.60
2019-03-21T21:05:49.160Z,84.30
2019-03-21T21:08:15.724Z,70.20
2019-03-21T21:10:42.292Z,46.23
2019-03-21T21:13:09.109Z,230.20
2019-03-21T21:15:37.615Z,277.57
2019-03-21T21:18:04.412Z,202.30
2019-03-21T21:20:31.071Z,192.80
2019-03-21T21:22:57.598Z,105.03
2019-03-21T21:25:24.430Z,106.33
2019-03-21T21:27:51.344Z,239.27
2019-03-21T21:30:20.271Z,72.77
2019-03-21T21:32:47.233Z,116.37
2019-03-21T21:35:14.271Z,99.37
2019-03-21T21:37:41.072Z,48.33
2019-03-21T21:40:10.042Z,58.40
2019-03-21T21:42:36.810Z,80.03
2019-03-21T21:45:08.414Z,139.30
2019-03-21T21:47:37.173Z,50.90
2019-03-21T21:50:09.192Z,63.93
2019-03-21T21:52:41.877Z,49.17
2019-03-21T21:55:07.100Z,46.27
2019-03-21T21:57:33.879Z,61.13
2019-03-21T22:00:00.482Z,37.67
2019-03-21T22:02:27.208Z,41.30
2019-03-21T22:04:53.899Z,55.77
2019-03-21T22:07:20.462Z,64.73
2019-03-21T22:09:47.123Z,36.87
2019-03-21T22:12:13.834Z,53.80
2019-03-21T22:14:40.652Z,46.93
2019-03-21T22:17:07.485Z,45.20
2019-03-21T22:19:34.082Z,46.23
2019-03-21T22:22:00.802Z,47.77
2019-03-21T22:24:27.595Z,46.30
2019-03-21T22:26:54.182Z,37.70
2019-03-21T22:29:20.728Z,39.70
2019-03-21T22:31:47.768Z,47.43
2019-03-21T22:34:14.489Z,47.57
2019-03-21T22:36:49.229Z,62.57
2019-03-21T22:39:09.751Z,43.97
2019-03-21T22:41:36.440Z,42.10
2019-03-21T22:44:03.362Z,40.50
2019-03-21T22:46:29.954Z,50.00
2019-03-21T22:48:56.534Z,47.63
2019-03-21T22:51:23.273Z,39.67
2019-03-21T22:53:50.020Z,50.47
2019-03-21T22:56:16.618Z,47.23
2019-03-21T22:58:43.256Z,42.13
2019-03-21T23:01:10.298Z,59.47
2019-03-21T23:03:37.145Z,46.50
2019-03-21T23:06:03.856Z,49.50
2019-03-21T23:08:30.427Z,36.63
2019-03-21T23:10:59.013Z,52.13
2019-03-21T23:13:26.468Z,47.70
2019-03-21T23:15:53.671Z,146.67
2019-03-21T23:18:20.379Z,40.47
2019-03-21T23:20:47.205Z,73.67
2019-03-21T23:23:13.784Z,72.30
2019-03-21T23:25:40.393Z,36.07
2019-03-21T23:28:07.410Z,45.90
2019-03-21T23:30:35.185Z,62.00
2019-03-21T23:33:01.895Z,42.30
2019-03-21T23:35:28.761Z,38.23
2019-03-21T23:37:55.339Z,94.77
2019-03-21T23:40:21.996Z,93.90
2019-03-21T23:42:48.587Z,66.47
2019-03-21T23:45:15.571Z,42.60
2019-03-21T23:47:42.756Z,157.20
2019-03-21T23:50:13.169Z,39.73
2019-03-21T23:52:41.294Z,104.07
2019-03-21T23:55:09.225Z,84.17
2019-03-21T23:57:35.954Z,46.23
